sensor_id;sensor_type;location;lat;lon;timestamp;temperature;humidity
3944;DHT22;1986;52.546;13.428;2022-11-20T00:01:49;1.80;99.90
3944;DHT22;1986;52.546;13.428;2022-11-20T00:04:16;1.70;99.90
3944;DHT22;1986;52.546;13.428;2022-11-20T00:06:43;1.80;99.90
3944;DHT22;1986;52.546;13.428;2022-11-20T00:09:10;1.80;99.90
3944;DHT22;1986;52.546;13.428;2022-11-20T00:11:37;1.80;99.90
3944;DHT22;1986;52.546;13.428;2022-11-20T00:14:04;1.70;99.90
3944;DHT22;1986;52.546;13.428;2022-11-20T00:16:32;1.80;99.90
3944;DHT22;1986;52.546;13.428;2022-11-20T00:19:01;1.70;99.90
3944;DHT22;1986;52.546;13.428;2022-11-20T00:21:29;1.70;99.90
3944;DHT22;1986;52.546;13.428;2022-11-20T00:23:58;1.60;99.90
3944;DHT22;1986;52.546;13.428;2022-11-20T00:26:26;1.60;99.90
3944;DHT22;1986;52.546;13.428;2022-11-20T00:28:54;1.60;99.90
3944;DHT22;1986;52.546;13.428;2022-11-20T00:31:22;1.50;99.90
3944;DHT22;1986;52.546;13.428;2022-11-20T00:33:49;1.50;99.90
3944;DHT22;1986;52.546;13.428;2022-11-20T00:36:18;1.50;99.90
3944;DHT22;1986;52.546;13.428;2022-11-20T00:38:46;1.50;99.90
3944;DHT22;1986;52.546;13.428;2022-11-20T00:41:15;1.50;99.90
3944;DHT22;1986;52.546;13.428;2022-11-20T00:43:42;1.50;99.90
3944;DHT22;1986;52.546;13.428;2022-11-20T00:46:12;1.50;99.90
3944;DHT22;1986;52.546;13.428;2022-11-20T00:48:39;1.50;99.90
3944;DHT22;1986;52.546;13.428;2022-11-20T00:51:06;1.50;99.90
3944;DHT22;1986;52.546;13.428;2022-11-20T00:53:38;1.50;99.90
3944;DHT22;1986;52.546;13.428;2022-11-20T00:56:07;1.50;99.90
3944;DHT22;1986;52.546;13.428;2022-11-20T00:58:36;1.50;99.90
3944;DHT22;1986;52.546;13.428;2022-11-20T01:01:14;1.50;99.90
3944;DHT22;1986;52.546;13.428;2022-11-20T01:03:43;1.50;99.90
3944;DHT22;1986;52.546;13.428;2022-11-20T01:06:14;1.40;99.90
3944;DHT22;1986;52.546;13.428;2022-11-20T01:08:44;1.50;99.90
3944;DHT22;1986;52.546;13.428;2022-11-20T01:11:12;1.50;99.90
3944;DHT22;1986;52.546;13.428;2022-11-20T01:13:40;1.50;99.90
3944;DHT22;1986;52.546;13.428;2022-11-20T01:16:09;1.50;99.90
3944;DHT22;1986;52.546;13.428;2022-11-20T01:18:37;1.40;99.90
3944;DHT22;1986;52.546;13.428;2022-11-20T01:21:07;1.40;99.90
3944;DHT22;1986;52.546;13.428;2022-11-20T01:23:35;1.40;99.90
3944;DHT22;1986;52.546;13.428;2022-11-20T01:26:05;1.40;99.90
3944;DHT22;1986;52.546;13.428;2022-11-20T01:28:33;1.50;99.90
3944;DHT22;1986;52.546;13.428;2022-11-20T01:31:01;1.50;99.90
3944;DHT22;1986;52.546;13.428;2022-11-20T01:33:28;1.50;99.90
3944;DHT22;1986;52.546;13.428;2022-11-20T01:36:03;1.50;99.90
3944;DHT22;1986;52.546;13.428;2022-11-20T01:38:31;1.50;99.90
3944;DHT22;1986;52.546;13.428;2022-11-20T01:40:58;1.50;99.90
3944;DHT22;1986;52.546;13.428;2022-11-20T01:43:26;1.50;99.90
3944;DHT22;1986;52.546;13.428;2022-11-20T01:46:06;1.50;99.90
3944;DHT22;1986;52.546;13.428;2022-11-20T01:48:42;1.40;99.90
3944;DHT22;1986;52.546;13.428;2022-11-20T01:51:15;1.40;99.90
3944;DHT22;1986;52.546;13.428;2022-11-20T01:53:44;1.40;99.90
3944;DHT22;1986;52.546;13.428;2022-11-20T01:56:13;1.40;99.90
3944;DHT22;1986;52.546;13.428;2022-11-20T01:58:44;1.30;99.90
3944;DHT22;1986;52.546;13.428;2022-11-20T02:01:14;1.40;99.90
3944;DHT22;1986;52.546;13.428;2022-11-20T02:03:44;1.40;99.90
3944;DHT22;1986;52.546;13.428;2022-11-20T02:06:16;1.40;99.90
3944;DHT22;1986;52.546;13.428;2022-11-20T02:08:44;1.40;99.90
3944;DHT22;1986;52.546;13.428;2022-11-20T02:11:11;1.30;99.90
3944;DHT22;1986;52.546;13.428;2022-11-20T02:13:39;1.30;99.90
3944;DHT22;1986;52.546;13.428;2022-11-20T02:16:19;1.40;99.90
3944;DHT22;1986;52.546;13.428;2022-11-20T02:18:47;1.30;99.90
3944;DHT22;1986;52.546;13.428;2022-11-20T02:21:22;1.40;99.90
3944;DHT22;1986;52.546;13.428;2022-11-20T02:24:08;1.40;99.90
3944;DHT22;1986;52.546;13.428;2022-11-20T02:26:43;1.30;99.90
3944;DHT22;1986;52.546;13.428;2022-11-20T02:29:11;1.30;99.90
3944;DHT22;1986;52.546;13.428;2022-11-20T02:31:41;1.30;99.90
3944;DHT22;1986;52.546;13.428;2022-11-20T02:34:09;1.30;99.90
3944;DHT22;1986;52.546;13.428;2022-11-20T02:36:37;1.20;99.90
3944;DHT22;1986;52.546;13.428;2022-11-20T02:39:07;1.20;99.90
3944;DHT22;1986;52.546;13.428;2022-11-20T02:41:37;1.10;99.90
3944;DHT22;1986;52.546;13.428;2022-11-20T02:44:05;1.10;99.90
3944;DHT22;1986;52.546;13.428;2022-11-20T02:46:32;1.10;99.90
3944;DHT22;1986;52.546;13.428;2022-11-20T02:49:01;1.10;99.90
3944;DHT22;1986;52.546;13.428;2022-11-20T02:51:28;1.20;99.90
3944;DHT22;1986;52.546;13.428;2022-11-20T02:53:56;1.20;99.90
3944;DHT22;1986;52.546;13.428;2022-11-20T02:56:24;1.20;99.90
3944;DHT22;1986;52.546;13.428;2022-11-20T02:58:51;1.20;99.90
3944;DHT22;1986;52.546;13.428;2022-11-20T03:01:18;1.20;99.90
3944;DHT22;1986;52.546;13.428;2022-11-20T03:03:45;1.20;99.90
3944;DHT22;1986;52.546;13.428;2022-11-20T03:06:14;1.20;99.90
3944;DHT22;1986;52.546;13.428;2022-11-20T03:08:41;1.20;99.90
3944;DHT22;1986;52.546;13.428;2022-11-20T03:11:11;1.20;99.90
3944;DHT22;1986;52.546;13.428;2022-11-20T03:13:39;1.20;99.90
3944;DHT22;1986;52.546;13.428;2022-11-20T03:16:09;1.20;99.90
3944;DHT22;1986;52.546;13.428;2022-11-20T03:18:37;1.20;99.90
3944;DHT22;1986;52.546;13.428;2022-11-20T03:21:07;1.10;99.90
3944;DHT22;1986;52.546;13.428;2022-11-20T03:23:34;1.10;99.90
3944;DHT22;1986;52.546;13.428;2022-11-20T03:26:08;1.20;99.90
3944;DHT22;1986;52.546;13.428;2022-11-20T03:28:35;1.20;99.90
3944;DHT22;1986;52.546;13.428;2022-11-20T03:31:10;1.20;99.90
3944;DHT22;1986;52.546;13.428;2022-11-20T03:33:38;1.10;99.90
3944;DHT22;1986;52.546;13.428;2022-11-20T03:36:07;1.20;99.90
3944;DHT22;1986;52.546;13.428;2022-11-20T03:38:35;1.20;99.90
3944;DHT22;1986;52.546;13.428;2022-11-20T03:41:04;1.20;99.90
3944;DHT22;1986;52.546;13.428;2022-11-20T03:43:37;1.10;99.90
3944;DHT22;1986;52.546;13.428;2022-11-20T03:46:06;1.10;99.90
3944;DHT22;1986;52.546;13.428;2022-11-20T03:48:33;1.10;99.90
3944;DHT22;1986;52.546;13.428;2022-11-20T03:51:08;1.10;99.90
3944;DHT22;1986;52.546;13.428;2022-11-20T03:53:35;1.10;99.90
3944;DHT22;1986;52.546;13.428;2022-11-20T03:56:02;1.10;99.90
3944;DHT22;1986;52.546;13.428;2022-11-20T03:58:29;1.10;99.90
3944;DHT22;1986;52.546;13.428;2022-11-20T04:00:56;1.20;99.90
3944;DHT22;1986;52.546;13.428;2022-11-20T04:03:25;1.20;99.90
3944;DHT22;1986;52.546;13.428;2022-11-20T04:05:52;1.20;99.90
3944;DHT22;1986;52.546;13.428;2022-11-20T04:08:19;1.20;99.90
3944;DHT22;1986;52.546;13.428;2022-11-20T04:10:46;1.10;99.90
3944;DHT22;1986;52.546;13.428;2022-11-20T04:13:13;1.10;99.90
3944;DHT22;1986;52.546;13.428;2022-11-20T04:15:40;1.00;99.90
3944;DHT22;1986;52.546;13.428;2022-11-20T04:18:07;1.10;99.90
3944;DHT22;1986;52.546;13.428;2022-11-20T04:20:35;1.10;99.90
3944;DHT22;1986;52.546;13.428;2022-11-20T04:23:04;1.10;99.90
3944;DHT22;1986;52.546;13.428;2022-11-20T04:25:31;1.10;99.90
3944;DHT22;1986;52.546;13.428;2022-11-20T04:27:58;1.10;99.90
3944;DHT22;1986;52.546;13.428;2022-11-20T04:30:25;1.00;99.90
3944;DHT22;1986;52.546;13.428;2022-11-20T04:32:52;1.10;99.90
3944;DHT22;1986;52.546;13.428;2022-11-20T04:35:19;1.10;99.90
3944;DHT22;1986;52.546;13.428;2022-11-20T04:37:48;1.10;99.90
3944;DHT22;1986;52.546;13.428;2022-11-20T04:40:17;1.10;99.90
3944;DHT22;1986;52.546;13.428;2022-11-20T04:42:44;1.10;99.90
3944;DHT22;1986;52.546;13.428;2022-11-20T04:45:11;1.10;99.90
3944;DHT22;1986;52.546;13.428;2022-11-20T04:47:38;1.10;99.90
3944;DHT22;1986;52.546;13.428;2022-11-20T04:50:06;1.00;99.90
3944;DHT22;1986;52.546;13.428;2022-11-20T04:52:33;1.00;99.90
3944;DHT22;1986;52.546;13.428;2022-11-20T04:55:01;0.90;99.90
3944;DHT22;1986;52.546;13.428;2022-11-20T04:57:28;1.00;99.90
3944;DHT22;1986;52.546;13.428;2022-11-20T04:59:55;1.00;99.90
3944;DHT22;1986;52.546;13.428;2022-11-20T05:02:22;1.00;99.90
3944;DHT22;1986;52.546;13.428;2022-11-20T05:04:49;1.00;99.90
3944;DHT22;1986;52.546;13.428;2022-11-20T05:07:16;1.00;99.90
3944;DHT22;1986;52.546;13.428;2022-11-20T05:09:43;1.00;99.90
3944;DHT22;1986;52.546;13.428;2022-11-20T05:12:11;1.00;99.90
3944;DHT22;1986;52.546;13.428;2022-11-20T05:14:38;1.00;99.90
3944;DHT22;1986;52.546;13.428;2022-11-20T05:17:05;1.00;99.90
3944;DHT22;1986;52.546;13.428;2022-11-20T05:19:32;1.00;99.90
3944;DHT22;1986;52.546;13.428;2022-11-20T05:21:59;0.90;99.90
3944;DHT22;1986;52.546;13.428;2022-11-20T05:24:26;0.90;99.90
3944;DHT22;1986;52.546;13.428;2022-11-20T05:26:53;0.90;99.90
3944;DHT22;1986;52.546;13.428;2022-11-20T05:29:21;0.90;99.90
3944;DHT22;1986;52.546;13.428;2022-11-20T05:31:48;0.90;99.90
3944;DHT22;1986;52.546;13.428;2022-11-20T05:34:15;1.00;99.90
3944;DHT22;1986;52.546;13.428;2022-11-20T05:36:42;1.00;99.90
3944;DHT22;1986;52.546;13.428;2022-11-20T05:39:09;1.00;99.90
3944;DHT22;1986;52.546;13.428;2022-11-20T05:41:36;1.00;99.90
3944;DHT22;1986;52.546;13.428;2022-11-20T05:44:03;1.00;99.90
3944;DHT22;1986;52.546;13.428;2022-11-20T05:46:32;1.00;99.90
3944;DHT22;1986;52.546;13.428;2022-11-20T05:48:59;1.00;99.90
3944;DHT22;1986;52.546;13.428;2022-11-20T05:51:26;1.00;99.90
3944;DHT22;1986;52.546;13.428;2022-11-20T05:53:53;1.00;99.90
3944;DHT22;1986;52.546;13.428;2022-11-20T05:56:21;1.00;99.90
3944;DHT22;1986;52.546;13.428;2022-11-20T05:58:48;1.00;99.90
3944;DHT22;1986;52.546;13.428;2022-11-20T06:01:19;1.00;99.90
3944;DHT22;1986;52.546;13.428;2022-11-20T06:03:48;1.10;99.90
3944;DHT22;1986;52.546;13.428;2022-11-20T06:06:16;1.10;99.90
3944;DHT22;1986;52.546;13.428;2022-11-20T06:08:44;1.10;99.90
3944;DHT22;1986;52.546;13.428;2022-11-20T06:11:13;1.10;99.90
3944;DHT22;1986;52.546;13.428;2022-11-20T06:13:40;1.10;99.90
3944;DHT22;1986;52.546;13.428;2022-11-20T06:16:08;1.20;99.90
3944;DHT22;1986;52.546;13.428;2022-11-20T06:18:38;1.20;99.90
3944;DHT22;1986;52.546;13.428;2022-11-20T06:21:08;1.20;99.90
3944;DHT22;1986;52.546;13.428;2022-11-20T06:23:38;1.20;99.90
3944;DHT22;1986;52.546;13.428;2022-11-20T06:26:06;1.20;99.90
3944;DHT22;1986;52.546;13.428;2022-11-20T06:28:34;1.20;99.90
3944;DHT22;1986;52.546;13.428;2022-11-20T06:31:01;1.20;99.90
3944;DHT22;1986;52.546;13.428;2022-11-20T06:33:29;1.20;99.90
3944;DHT22;1986;52.546;13.428;2022-11-20T06:35:57;1.20;99.90
3944;DHT22;1986;52.546;13.428;2022-11-20T06:38:25;1.20;99.90
3944;DHT22;1986;52.546;13.428;2022-11-20T06:40:53;1.30;99.90
3944;DHT22;1986;52.546;13.428;2022-11-20T06:43:20;1.30;99.90
3944;DHT22;1986;52.546;13.428;2022-11-20T06:45:51;1.30;99.90
3944;DHT22;1986;52.546;13.428;2022-11-20T06:48:18;1.30;99.90
3944;DHT22;1986;52.546;13.428;2022-11-20T06:50:45;1.20;99.90
3944;DHT22;1986;52.546;13.428;2022-11-20T06:53:12;1.30;99.90
3944;DHT22;1986;52.546;13.428;2022-11-20T06:55:44;1.30;99.90
3944;DHT22;1986;52.546;13.428;2022-11-20T06:58:11;1.30;99.90
3944;DHT22;1986;52.546;13.428;2022-11-20T07:00:38;1.20;99.90
3944;DHT22;1986;52.546;13.428;2022-11-20T07:03:06;1.30;99.90
3944;DHT22;1986;52.546;13.428;2022-11-20T07:05:36;1.30;99.90
3944;DHT22;1986;52.546;13.428;2022-11-20T07:08:04;1.30;99.90
3944;DHT22;1986;52.546;13.428;2022-11-20T07:10:32;1.30;99.90
3944;DHT22;1986;52.546;13.428;2022-11-20T07:13:00;1.30;99.90
3944;DHT22;1986;52.546;13.428;2022-11-20T07:15:27;1.30;99.90
3944;DHT22;1986;52.546;13.428;2022-11-20T07:17:55;1.30;99.90
3944;DHT22;1986;52.546;13.428;2022-11-20T07:20:22;1.30;99.90
3944;DHT22;1986;52.546;13.428;2022-11-20T07:22:53;1.30;99.90
3944;DHT22;1986;52.546;13.428;2022-11-20T07:25:21;1.40;99.90
3944;DHT22;1986;52.546;13.428;2022-11-20T07:27:48;1.40;99.90
3944;DHT22;1986;52.546;13.428;2022-11-20T07:30:17;1.30;99.90
3944;DHT22;1986;52.546;13.428;2022-11-20T07:32:46;1.20;99.90
3944;DHT22;1986;52.546;13.428;2022-11-20T07:35:13;1.20;99.90
3944;DHT22;1986;52.546;13.428;2022-11-20T07:37:40;1.30;99.90
3944;DHT22;1986;52.546;13.428;2022-11-20T07:40:07;1.20;99.90
3944;DHT22;1986;52.546;13.428;2022-11-20T07:42:35;1.20;99.90
3944;DHT22;1986;52.546;13.428;2022-11-20T07:45:01;1.20;99.90
3944;DHT22;1986;52.546;13.428;2022-11-20T07:47:35;1.10;99.90
3944;DHT22;1986;52.546;13.428;2022-11-20T07:50:02;1.10;99.90
3944;DHT22;1986;52.546;13.428;2022-11-20T07:52:29;1.10;99.90
3944;DHT22;1986;52.546;13.428;2022-11-20T07:54:56;1.10;99.90
3944;DHT22;1986;52.546;13.428;2022-11-20T07:57:23;1.20;99.90
3944;DHT22;1986;52.546;13.428;2022-11-20T07:59:50;1.20;99.90
3944;DHT22;1986;52.546;13.428;2022-11-20T08:02:17;1.20;99.90
3944;DHT22;1986;52.546;13.428;2022-11-20T08:04:45;1.30;99.90
3944;DHT22;1986;52.546;13.428;2022-11-20T08:07:12;1.20;99.90
3944;DHT22;1986;52.546;13.428;2022-11-20T08:09:39;1.20;99.90
3944;DHT22;1986;52.546;13.428;2022-11-20T08:12:18;1.20;99.90
3944;DHT22;1986;52.546;13.428;2022-11-20T08:15:04;1.20;99.90
3944;DHT22;1986;52.546;13.428;2022-11-20T08:17:32;1.10;99.90
3944;DHT22;1986;52.546;13.428;2022-11-20T08:20:00;1.10;99.90
3944;DHT22;1986;52.546;13.428;2022-11-20T08:22:27;1.20;99.90
3944;DHT22;1986;52.546;13.428;2022-11-20T08:24:55;1.20;99.90
3944;DHT22;1986;52.546;13.428;2022-11-20T08:27:22;1.20;99.90
3944;DHT22;1986;52.546;13.428;2022-11-20T08:29:49;1.20;99.90
3944;DHT22;1986;52.546;13.428;2022-11-20T08:32:17;1.20;99.90
3944;DHT22;1986;52.546;13.428;2022-11-20T08:34:44;1.20;99.90
3944;DHT22;1986;52.546;13.428;2022-11-20T08:37:13;1.20;99.90
3944;DHT22;1986;52.546;13.428;2022-11-20T08:39:40;1.20;99.90
3944;DHT22;1986;52.546;13.428;2022-11-20T08:42:07;1.10;99.90
3944;DHT22;1986;52.546;13.428;2022-11-20T08:44:34;1.20;99.90
3944;DHT22;1986;52.546;13.428;2022-11-20T08:47:03;1.20;99.90
3944;DHT22;1986;52.546;13.428;2022-11-20T08:49:30;1.20;99.90
3944;DHT22;1986;52.546;13.428;2022-11-20T08:51:59;1.10;99.90
3944;DHT22;1986;52.546;13.428;2022-11-20T08:54:27;1.10;99.90
3944;DHT22;1986;52.546;13.428;2022-11-20T08:56:56;1.20;99.90
3944;DHT22;1986;52.546;13.428;2022-11-20T08:59:23;1.20;99.90
3944;DHT22;1986;52.546;13.428;2022-11-20T09:01:53;1.30;99.90
3944;DHT22;1986;52.546;13.428;2022-11-20T09:04:20;1.30;99.90
3944;DHT22;1986;52.546;13.428;2022-11-20T09:06:47;1.30;99.90
3944;DHT22;1986;52.546;13.428;2022-11-20T09:09:16;1.30;99.90
3944;DHT22;1986;52.546;13.428;2022-11-20T09:11:45;1.20;99.90
3944;DHT22;1986;52.546;13.428;2022-11-20T09:14:12;1.00;99.90
3944;DHT22;1986;52.546;13.428;2022-11-20T09:16:39;1.00;99.90
3944;DHT22;1986;52.546;13.428;2022-11-20T09:19:06;0.80;99.90
3944;DHT22;1986;52.546;13.428;2022-11-20T09:21:33;0.90;99.90
3944;DHT22;1986;52.546;13.428;2022-11-20T09:24:00;0.90;99.90
3944;DHT22;1986;52.546;13.428;2022-11-20T09:26:27;0.90;99.90
3944;DHT22;1986;52.546;13.428;2022-11-20T09:28:56;0.90;99.90
3944;DHT22;1986;52.546;13.428;2022-11-20T09:31:24;0.90;99.90
3944;DHT22;1986;52.546;13.428;2022-11-20T09:33:52;0.90;99.90
3944;DHT22;1986;52.546;13.428;2022-11-20T09:36:19;0.90;99.90
3944;DHT22;1986;52.546;13.428;2022-11-20T09:38:46;1.00;99.90
3944;DHT22;1986;52.546;13.428;2022-11-20T09:41:31;0.90;99.90
3944;DHT22;1986;52.546;13.428;2022-11-20T09:44:07;1.00;99.90
3944;DHT22;1986;52.546;13.428;2022-11-20T09:46:45;1.10;99.90
3944;DHT22;1986;52.546;13.428;2022-11-20T09:49:25;1.10;99.90
3944;DHT22;1986;52.546;13.428;2022-11-20T09:51:58;1.10;99.90
3944;DHT22;1986;52.546;13.428;2022-11-20T09:54:29;1.30;99.90
3944;DHT22;1986;52.546;13.428;2022-11-20T09:57:00;1.40;99.90
3944;DHT22;1986;52.546;13.428;2022-11-20T09:59:36;1.30;99.90
3944;DHT22;1986;52.546;13.428;2022-11-20T10:02:15;1.30;99.90
3944;DHT22;1986;52.546;13.428;2022-11-20T10:04:46;1.30;99.90
3944;DHT22;1986;52.546;13.428;2022-11-20T10:07:17;1.40;99.90
3944;DHT22;1986;52.546;13.428;2022-11-20T10:09:51;1.50;99.90
3944;DHT22;1986;52.546;13.428;2022-11-20T10:12:27;1.60;99.90
3944;DHT22;1986;52.546;13.428;2022-11-20T10:15:12;1.70;99.90
3944;DHT22;1986;52.546;13.428;2022-11-20T10:17:56;1.80;99.90
3944;DHT22;1986;52.546;13.428;2022-11-20T10:20:32;1.60;99.90
3944;DHT22;1986;52.546;13.428;2022-11-20T10:23:25;1.50;99.90
3944;DHT22;1986;52.546;13.428;2022-11-20T10:26:01;1.40;99.90
3944;DHT22;1986;52.546;13.428;2022-11-20T10:28:43;1.40;99.90
3944;DHT22;1986;52.546;13.428;2022-11-20T10:31:22;1.50;99.90
3944;DHT22;1986;52.546;13.428;2022-11-20T10:33:52;1.40;99.90
3944;DHT22;1986;52.546;13.428;2022-11-20T10:36:23;1.50;99.90
3944;DHT22;1986;52.546;13.428;2022-11-20T10:38:56;1.60;99.90
3944;DHT22;1986;52.546;13.428;2022-11-20T10:41:27;1.60;99.90
3944;DHT22;1986;52.546;13.428;2022-11-20T10:44:02;1.60;99.90
3944;DHT22;1986;52.546;13.428;2022-11-20T10:46:37;1.80;99.90
3944;DHT22;1986;52.546;13.428;2022-11-20T10:49:13;1.70;99.90
3944;DHT22;1986;52.546;13.428;2022-11-20T10:51:51;1.70;99.90
3944;DHT22;1986;52.546;13.428;2022-11-20T10:54:24;1.50;99.90
3944;DHT22;1986;52.546;13.428;2022-11-20T10:57:01;1.60;99.90
3944;DHT22;1986;52.546;13.428;2022-11-20T10:59:57;1.50;99.90
3944;DHT22;1986;52.546;13.428;2022-11-20T11:02:38;1.60;99.90
3944;DHT22;1986;52.546;13.428;2022-11-20T11:05:13;1.70;99.90
3944;DHT22;1986;52.546;13.428;2022-11-20T11:07:41;1.80;99.90
3944;DHT22;1986;52.546;13.428;2022-11-20T11:10:16;1.90;99.90
3944;DHT22;1986;52.546;13.428;2022-11-20T11:12:45;2.10;99.90
3944;DHT22;1986;52.546;13.428;2022-11-20T11:15:25;2.30;99.90
3944;DHT22;1986;52.546;13.428;2022-11-20T11:17:55;2.10;99.90
3944;DHT22;1986;52.546;13.428;2022-11-20T11:20:23;2.10;99.90
3944;DHT22;1986;52.546;13.428;2022-11-20T11:22:51;2.10;99.90
3944;DHT22;1986;52.546;13.428;2022-11-20T11:25:28;1.90;99.90
3944;DHT22;1986;52.546;13.428;2022-11-20T11:27:57;1.80;99.90
3944;DHT22;1986;52.546;13.428;2022-11-20T11:30:28;1.80;99.90
3944;DHT22;1986;52.546;13.428;2022-11-20T11:33:06;1.80;99.90
3944;DHT22;1986;52.546;13.428;2022-11-20T11:35:44;1.90;99.90
3944;DHT22;1986;52.546;13.428;2022-11-20T11:38:15;1.90;99.90
3944;DHT22;1986;52.546;13.428;2022-11-20T11:40:43;1.90;99.90
3944;DHT22;1986;52.546;13.428;2022-11-20T11:43:18;1.90;99.90
3944;DHT22;1986;52.546;13.428;2022-11-20T11:46:19;1.90;99.90
3944;DHT22;1986;52.546;13.428;2022-11-20T11:48:57;2.00;99.90
3944;DHT22;1986;52.546;13.428;2022-11-20T11:51:26;2.00;99.90
3944;DHT22;1986;52.546;13.428;2022-11-20T11:53:58;1.90;99.90
3944;DHT22;1986;52.546;13.428;2022-11-20T11:56:25;1.90;99.90
3944;DHT22;1986;52.546;13.428;2022-11-20T11:58:56;1.90;99.90
3944;DHT22;1986;52.546;13.428;2022-11-20T12:01:29;1.70;99.90
3944;DHT22;1986;52.546;13.428;2022-11-20T12:04:04;1.70;99.90
3944;DHT22;1986;52.546;13.428;2022-11-20T12:06:34;1.60;99.90
3944;DHT22;1986;52.546;13.428;2022-11-20T12:09:10;1.50;99.90
3944;DHT22;1986;52.546;13.428;2022-11-20T12:11:43;1.50;99.90
3944;DHT22;1986;52.546;13.428;2022-11-20T12:14:14;1.40;99.90
3944;DHT22;1986;52.546;13.428;2022-11-20T12:16:45;1.30;99.90
3944;DHT22;1986;52.546;13.428;2022-11-20T12:19:14;1.30;99.90
3944;DHT22;1986;52.546;13.428;2022-11-20T12:21:50;1.40;99.90
3944;DHT22;1986;52.546;13.428;2022-11-20T12:24:42;1.40;99.90
3944;DHT22;1986;52.546;13.428;2022-11-20T12:30:12;1.40;99.90
3944;DHT22;1986;52.546;13.428;2022-11-20T12:33:01;1.40;99.90
3944;DHT22;1986;52.546;13.428;2022-11-20T12:36:06;1.50;99.90
3944;DHT22;1986;52.546;13.428;2022-11-20T12:38:55;1.40;99.90
3944;DHT22;1986;52.546;13.428;2022-11-20T12:41:39;1.40;99.90
3944;DHT22;1986;52.546;13.428;2022-11-20T12:44:50;1.50;99.90
3944;DHT22;1986;52.546;13.428;2022-11-20T12:48:03;1.50;99.90
3944;DHT22;1986;52.546;13.428;2022-11-20T12:50:43;1.50;99.90
3944;DHT22;1986;52.546;13.428;2022-11-20T12:53:23;1.40;99.90
3944;DHT22;1986;52.546;13.428;2022-11-20T12:56:03;1.50;99.90
3944;DHT22;1986;52.546;13.428;2022-11-20T12:58:39;1.60;99.90
3944;DHT22;1986;52.546;13.428;2022-11-20T13:01:19;1.70;99.90
3944;DHT22;1986;52.546;13.428;2022-11-20T13:04:08;1.80;99.90
3944;DHT22;1986;52.546;13.428;2022-11-20T13:06:39;1.80;99.90
3944;DHT22;1986;52.546;13.428;2022-11-20T13:09:12;1.80;99.90
3944;DHT22;1986;52.546;13.428;2022-11-20T13:11:44;1.90;99.90
3944;DHT22;1986;52.546;13.428;2022-11-20T13:14:26;1.80;99.90
3944;DHT22;1986;52.546;13.428;2022-11-20T13:17:03;1.90;99.90
3944;DHT22;1986;52.546;13.428;2022-11-20T13:19:33;1.80;99.90
3944;DHT22;1986;52.546;13.428;2022-11-20T13:22:00;1.80;99.90
3944;DHT22;1986;52.546;13.428;2022-11-20T13:24:30;1.90;99.90
3944;DHT22;1986;52.546;13.428;2022-11-20T13:27:03;1.90;99.90
3944;DHT22;1986;52.546;13.428;2022-11-20T13:29:36;1.90;99.90
3944;DHT22;1986;52.546;13.428;2022-11-20T13:32:14;1.80;99.90
3944;DHT22;1986;52.546;13.428;2022-11-20T13:34:52;1.80;99.90
3944;DHT22;1986;52.546;13.428;2022-11-20T13:37:27;1.80;99.90
3944;DHT22;1986;52.546;13.428;2022-11-20T13:40:12;1.80;99.90
3944;DHT22;1986;52.546;13.428;2022-11-20T13:42:44;1.80;99.90
3944;DHT22;1986;52.546;13.428;2022-11-20T13:45:23;1.80;99.90
3944;DHT22;1986;52.546;13.428;2022-11-20T13:47:57;1.80;99.90
3944;DHT22;1986;52.546;13.428;2022-11-20T13:50:39;1.70;99.90
3944;DHT22;1986;52.546;13.428;2022-11-20T13:53:21;1.80;99.90
3944;DHT22;1986;52.546;13.428;2022-11-20T13:55:54;1.70;99.90
3944;DHT22;1986;52.546;13.428;2022-11-20T13:58:41;1.70;99.90
3944;DHT22;1986;52.546;13.428;2022-11-20T14:01:11;1.60;99.90
3944;DHT22;1986;52.546;13.428;2022-11-20T14:03:41;1.60;99.90
3944;DHT22;1986;52.546;13.428;2022-11-20T14:06:12;1.70;99.90
3944;DHT22;1986;52.546;13.428;2022-11-20T14:08:46;1.60;99.90
3944;DHT22;1986;52.546;13.428;2022-11-20T14:11:17;1.60;99.90
3944;DHT22;1986;52.546;13.428;2022-11-20T14:13:56;1.60;99.90
3944;DHT22;1986;52.546;13.428;2022-11-20T14:16:26;1.60;99.90
3944;DHT22;1986;52.546;13.428;2022-11-20T14:19:23;1.50;99.90
3944;DHT22;1986;52.546;13.428;2022-11-20T14:21:44;1.50;99.90
3944;DHT22;1986;52.546;13.428;2022-11-20T14:24:25;1.50;99.90
3944;DHT22;1986;52.546;13.428;2022-11-20T14:26:54;1.40;99.90
3944;DHT22;1986;52.546;13.428;2022-11-20T14:32:53;1.30;99.90
3944;DHT22;1986;52.546;13.428;2022-11-20T14:35:51;1.30;99.90
3944;DHT22;1986;52.546;13.428;2022-11-20T14:51:59;1.20;99.90
3944;DHT22;1986;52.546;13.428;2022-11-20T14:54:31;1.30;99.90
3944;DHT22;1986;52.546;13.428;2022-11-20T14:57:18;1.30;99.90
3944;DHT22;1986;52.546;13.428;2022-11-20T14:59:47;1.40;99.90
3944;DHT22;1986;52.546;13.428;2022-11-20T15:02:19;1.40;99.90
3944;DHT22;1986;52.546;13.428;2022-11-20T15:04:56;1.30;99.90
3944;DHT22;1986;52.546;13.428;2022-11-20T15:07:25;1.30;99.90
3944;DHT22;1986;52.546;13.428;2022-11-20T15:10:03;1.40;99.90
3944;DHT22;1986;52.546;13.428;2022-11-20T15:12:31;1.40;99.90
3944;DHT22;1986;52.546;13.428;2022-11-20T15:15:00;1.40;99.90
3944;DHT22;1986;52.546;13.428;2022-11-20T15:17:31;1.40;99.90
3944;DHT22;1986;52.546;13.428;2022-11-20T15:20:10;1.40;99.90
3944;DHT22;1986;52.546;13.428;2022-11-20T15:22:40;1.30;99.90
3944;DHT22;1986;52.546;13.428;2022-11-20T15:25:12;1.30;99.90
3944;DHT22;1986;52.546;13.428;2022-11-20T15:27:41;1.30;99.90
3944;DHT22;1986;52.546;13.428;2022-11-20T15:30:13;1.40;99.90
3944;DHT22;1986;52.546;13.428;2022-11-20T15:32:44;1.30;99.90
3944;DHT22;1986;52.546;13.428;2022-11-20T15:35:12;1.30;99.90
3944;DHT22;1986;52.546;13.428;2022-11-20T15:37:41;1.30;99.90
3944;DHT22;1986;52.546;13.428;2022-11-20T15:40:08;1.30;99.90
3944;DHT22;1986;52.546;13.428;2022-11-20T15:42:40;1.30;99.90
3944;DHT22;1986;52.546;13.428;2022-11-20T15:45:29;1.30;99.90
3944;DHT22;1986;52.546;13.428;2022-11-20T15:47:57;1.40;99.90
3944;DHT22;1986;52.546;13.428;2022-11-20T15:50:29;1.40;99.90
3944;DHT22;1986;52.546;13.428;2022-11-20T15:52:59;1.40;99.90
3944;DHT22;1986;52.546;13.428;2022-11-20T15:55:27;1.40;99.90
3944;DHT22;1986;52.546;13.428;2022-11-20T15:57:54;1.40;99.90
3944;DHT22;1986;52.546;13.428;2022-11-20T16:00:22;1.40;99.90
3944;DHT22;1986;52.546;13.428;2022-11-20T16:02:54;1.40;99.90
3944;DHT22;1986;52.546;13.428;2022-11-20T16:05:22;1.30;99.90
3944;DHT22;1986;52.546;13.428;2022-11-20T16:07:58;1.20;99.90
3944;DHT22;1986;52.546;13.428;2022-11-20T16:10:26;1.20;99.90
3944;DHT22;1986;52.546;13.428;2022-11-20T16:12:53;1.20;99.90
3944;DHT22;1986;52.546;13.428;2022-11-20T16:15:38;1.10;99.90
3944;DHT22;1986;52.546;13.428;2022-11-20T16:18:24;1.10;99.90
3944;DHT22;1986;52.546;13.428;2022-11-20T16:20:53;1.00;99.90
3944;DHT22;1986;52.546;13.428;2022-11-20T16:23:23;1.00;99.90
3944;DHT22;1986;52.546;13.428;2022-11-20T16:25:52;1.00;99.90
3944;DHT22;1986;52.546;13.428;2022-11-20T16:28:23;1.00;99.90
3944;DHT22;1986;52.546;13.428;2022-11-20T16:30:51;0.90;99.90
3944;DHT22;1986;52.546;13.428;2022-11-20T16:33:21;0.90;99.90
3944;DHT22;1986;52.546;13.428;2022-11-20T16:35:48;0.90;99.90
3944;DHT22;1986;52.546;13.428;2022-11-20T16:38:15;0.80;99.90
3944;DHT22;1986;52.546;13.428;2022-11-20T16:40:49;0.80;99.90
3944;DHT22;1986;52.546;13.428;2022-11-20T16:43:16;0.80;99.90
3944;DHT22;1986;52.546;13.428;2022-11-20T16:45:44;0.80;99.90
3944;DHT22;1986;52.546;13.428;2022-11-20T16:48:15;0.80;99.90